Taconite, Minnesota
Current Conditions -  °F | °C
As of 1:35 PM on Tuesday 21 Oct 2014 (Local Time) from KGPZ Reporting Station
Clear Clear  
Wind Chill: 42°   Ceiling: Unl
Heat Index: 48°   Visibility: 10mi
Dew Point: 36°   Wind: 15mph
Humidity: 62%   Direction: 160°SSE
Pressure: 30.16"   Gusts: NA
Location:  47.31°N, 93.38°W
Report Text: KGPZ 211835Z AUTO 16013KT 10SM CLR 09/02 A3016 RMK AO1
Loading
Personal Weather Stations






























Interactive Weather Map
Tropical Storm Tracking
New forecast layout! Learn more

10-Day Weather Forecast

Advertisements
Track Severe Weather on mobile